Edwards Crossroads, North Carolina
Current Conditions -  °F | °C
As of 2:55 AM on Saturday 25 Oct 2014 (Local Time) from KGEV Reporting Station
Clear Clear  
Wind Chill: 49°   Ceiling: Unl
Heat Index: 49°   Visibility: 10mi
Dew Point: 33°   Wind: 0mph
Humidity: 54%   Direction: NA
Pressure: 30.05"   Gusts: NA
Location:  36.5212°N, 81.1574°W
Report Text: KGEV 250655Z AUTO 00000KT 10SM CLR 09/01 A3005 RMK AO2 T00940005
Loading
Personal Weather Stations






























Interactive Weather Map
Tropical Storm Tracking
New forecast layout! Learn more

10-Day Weather Forecast

Advertisements
Track Severe Weather on mobile